sensor_id;sensor_type;location;lat;lon;timestamp;temperature;humidity
54518;DHT22;40423;53.176;6.002;2023-02-05T00:02:06;6.20;99.90
54518;DHT22;40423;53.176;6.002;2023-02-05T00:04:33;6.20;99.90
54518;DHT22;40423;53.176;6.002;2023-02-05T00:06:59;6.20;99.90
54518;DHT22;40423;53.176;6.002;2023-02-05T00:09:25;6.10;99.90
54518;DHT22;40423;53.176;6.002;2023-02-05T00:11:53;6.20;99.90
54518;DHT22;40423;53.176;6.002;2023-02-05T00:14:19;6.20;99.90
54518;DHT22;40423;53.176;6.002;2023-02-05T00:16:45;6.20;99.90
54518;DHT22;40423;53.176;6.002;2023-02-05T00:19:10;6.30;99.90
54518;DHT22;40423;53.176;6.002;2023-02-05T00:21:36;6.30;99.90
54518;DHT22;40423;53.176;6.002;2023-02-05T00:24:02;6.30;99.90
54518;DHT22;40423;53.176;6.002;2023-02-05T00:26:28;6.30;99.90
54518;DHT22;40423;53.176;6.002;2023-02-05T00:28:53;6.30;99.90
54518;DHT22;40423;53.176;6.002;2023-02-05T00:31:20;6.30;99.90
54518;DHT22;40423;53.176;6.002;2023-02-05T00:33:47;6.30;99.90
54518;DHT22;40423;53.176;6.002;2023-02-05T00:36:14;6.30;99.90
54518;DHT22;40423;53.176;6.002;2023-02-05T00:38:41;6.30;99.90
54518;DHT22;40423;53.176;6.002;2023-02-05T00:41:07;6.30;99.90
54518;DHT22;40423;53.176;6.002;2023-02-05T00:43:32;6.30;99.90
54518;DHT22;40423;53.176;6.002;2023-02-05T00:45:58;6.30;99.90
54518;DHT22;40423;53.176;6.002;2023-02-05T00:48:24;6.30;99.90
54518;DHT22;40423;53.176;6.002;2023-02-05T00:50:51;6.30;99.90
54518;DHT22;40423;53.176;6.002;2023-02-05T00:53:17;6.20;99.90
54518;DHT22;40423;53.176;6.002;2023-02-05T00:55:44;6.30;99.90
54518;DHT22;40423;53.176;6.002;2023-02-05T00:58:10;6.30;99.90
54518;DHT22;40423;53.176;6.002;2023-02-05T01:00:36;6.30;99.90
54518;DHT22;40423;53.176;6.002;2023-02-05T01:03:01;6.30;99.90
54518;DHT22;40423;53.176;6.002;2023-02-05T01:05:27;6.30;99.90
54518;DHT22;40423;53.176;6.002;2023-02-05T01:07:55;6.30;99.90
54518;DHT22;40423;53.176;6.002;2023-02-05T01:10:21;6.30;99.90
54518;DHT22;40423;53.176;6.002;2023-02-05T01:12:48;6.30;99.90
54518;DHT22;40423;53.176;6.002;2023-02-05T01:15:14;6.30;99.90
54518;DHT22;40423;53.176;6.002;2023-02-05T01:17:40;6.40;99.90
54518;DHT22;40423;53.176;6.002;2023-02-05T01:20:07;6.40;99.90
54518;DHT22;40423;53.176;6.002;2023-02-05T01:22:33;6.40;99.90
54518;DHT22;40423;53.176;6.002;2023-02-05T01:24:59;6.40;99.90
54518;DHT22;40423;53.176;6.002;2023-02-05T01:27:25;6.40;99.90
54518;DHT22;40423;53.176;6.002;2023-02-05T01:29:51;6.40;99.90
54518;DHT22;40423;53.176;6.002;2023-02-05T01:32:17;6.40;99.90
54518;DHT22;40423;53.176;6.002;2023-02-05T01:34:44;6.50;99.90
54518;DHT22;40423;53.176;6.002;2023-02-05T01:37:10;6.50;99.90
54518;DHT22;40423;53.176;6.002;2023-02-05T01:39:36;6.50;99.90
54518;DHT22;40423;53.176;6.002;2023-02-05T01:42:19;6.50;99.90
54518;DHT22;40423;53.176;6.002;2023-02-05T01:50:33;6.50;99.90
54518;DHT22;40423;53.176;6.002;2023-02-05T01:53:04;6.50;99.90
54518;DHT22;40423;53.176;6.002;2023-02-05T01:55:30;6.60;99.90
54518;DHT22;40423;53.176;6.002;2023-02-05T01:57:58;6.60;99.90
54518;DHT22;40423;53.176;6.002;2023-02-05T02:00:25;6.60;99.90
54518;DHT22;40423;53.176;6.002;2023-02-05T02:02:52;6.60;99.90
54518;DHT22;40423;53.176;6.002;2023-02-05T02:05:18;6.60;99.90
54518;DHT22;40423;53.176;6.002;2023-02-05T02:07:44;6.60;99.90
54518;DHT22;40423;53.176;6.002;2023-02-05T02:10:12;6.70;99.90
54518;DHT22;40423;53.176;6.002;2023-02-05T02:12:40;6.70;99.90
54518;DHT22;40423;53.176;6.002;2023-02-05T02:15:16;6.70;99.90
54518;DHT22;40423;53.176;6.002;2023-02-05T02:17:46;6.70;99.90
54518;DHT22;40423;53.176;6.002;2023-02-05T02:20:17;6.70;99.90
54518;DHT22;40423;53.176;6.002;2023-02-05T02:28:49;6.80;99.90
54518;DHT22;40423;53.176;6.002;2023-02-05T02:31:45;6.80;99.90
54518;DHT22;40423;53.176;6.002;2023-02-05T02:35:10;6.80;99.90
54518;DHT22;40423;53.176;6.002;2023-02-05T02:38:05;6.80;99.90
54518;DHT22;40423;53.176;6.002;2023-02-05T02:40:51;6.80;99.90
54518;DHT22;40423;53.176;6.002;2023-02-05T02:43:43;6.80;99.90
54518;DHT22;40423;53.176;6.002;2023-02-05T02:46:27;6.90;99.90
54518;DHT22;40423;53.176;6.002;2023-02-05T02:48:57;6.80;99.90
54518;DHT22;40423;53.176;6.002;2023-02-05T02:51:26;6.90;99.90
54518;DHT22;40423;53.176;6.002;2023-02-05T02:53:55;6.90;99.90
54518;DHT22;40423;53.176;6.002;2023-02-05T02:56:24;6.90;99.90
54518;DHT22;40423;53.176;6.002;2023-02-05T02:58:58;6.90;99.90
54518;DHT22;40423;53.176;6.002;2023-02-05T03:01:29;6.90;99.90
54518;DHT22;40423;53.176;6.002;2023-02-05T03:04:01;6.90;99.90
54518;DHT22;40423;53.176;6.002;2023-02-05T03:06:29;6.90;99.90
54518;DHT22;40423;53.176;6.002;2023-02-05T03:11:26;7.00;99.90
54518;DHT22;40423;53.176;6.002;2023-02-05T03:13:54;7.00;99.90
54518;DHT22;40423;53.176;6.002;2023-02-05T03:16:20;7.00;99.90
54518;DHT22;40423;53.176;6.002;2023-02-05T03:18:47;7.00;99.90
54518;DHT22;40423;53.176;6.002;2023-02-05T03:21:20;7.00;99.90
54518;DHT22;40423;53.176;6.002;2023-02-05T03:23:48;7.00;99.90
54518;DHT22;40423;53.176;6.002;2023-02-05T03:26:33;7.00;99.90
54518;DHT22;40423;53.176;6.002;2023-02-05T03:29:05;7.00;99.90
54518;DHT22;40423;53.176;6.002;2023-02-05T03:32:03;7.00;99.90
54518;DHT22;40423;53.176;6.002;2023-02-05T03:34:50;7.00;99.90
54518;DHT22;40423;53.176;6.002;2023-02-05T03:43:35;7.00;99.90
54518;DHT22;40423;53.176;6.002;2023-02-05T03:56:44;7.00;99.90
54518;DHT22;40423;53.176;6.002;2023-02-05T03:59:14;7.00;99.90
54518;DHT22;40423;53.176;6.002;2023-02-05T04:01:43;7.00;99.90
54518;DHT22;40423;53.176;6.002;2023-02-05T04:04:09;7.00;99.90
54518;DHT22;40423;53.176;6.002;2023-02-05T04:06:35;7.00;99.90
54518;DHT22;40423;53.176;6.002;2023-02-05T04:09:01;7.00;99.90
54518;DHT22;40423;53.176;6.002;2023-02-05T04:11:27;7.00;99.90
54518;DHT22;40423;53.176;6.002;2023-02-05T04:13:52;7.00;99.90
54518;DHT22;40423;53.176;6.002;2023-02-05T04:16:18;7.00;99.90
54518;DHT22;40423;53.176;6.002;2023-02-05T04:18:44;7.00;99.90
54518;DHT22;40423;53.176;6.002;2023-02-05T04:21:09;7.00;99.90
54518;DHT22;40423;53.176;6.002;2023-02-05T04:23:35;7.00;99.90
54518;DHT22;40423;53.176;6.002;2023-02-05T04:26:01;7.00;99.90
54518;DHT22;40423;53.176;6.002;2023-02-05T04:28:27;7.00;99.90
54518;DHT22;40423;53.176;6.002;2023-02-05T04:30:52;7.00;99.90
54518;DHT22;40423;53.176;6.002;2023-02-05T04:33:18;7.00;99.90
54518;DHT22;40423;53.176;6.002;2023-02-05T04:35:44;7.00;99.90
54518;DHT22;40423;53.176;6.002;2023-02-05T04:38:09;7.00;99.90
54518;DHT22;40423;53.176;6.002;2023-02-05T04:40:35;7.00;99.90
54518;DHT22;40423;53.176;6.002;2023-02-05T04:43:01;7.10;99.90
54518;DHT22;40423;53.176;6.002;2023-02-05T04:45:26;7.00;99.90
54518;DHT22;40423;53.176;6.002;2023-02-05T04:47:56;7.00;99.90
54518;DHT22;40423;53.176;6.002;2023-02-05T04:50:22;7.00;99.90
54518;DHT22;40423;53.176;6.002;2023-02-05T04:52:48;6.90;99.90
54518;DHT22;40423;53.176;6.002;2023-02-05T04:55:14;6.80;99.90
54518;DHT22;40423;53.176;6.002;2023-02-05T04:57:39;6.90;99.90
54518;DHT22;40423;53.176;6.002;2023-02-05T05:00:05;6.80;99.90
54518;DHT22;40423;53.176;6.002;2023-02-05T05:02:31;6.70;99.90
54518;DHT22;40423;53.176;6.002;2023-02-05T05:04:57;6.60;99.90
54518;DHT22;40423;53.176;6.002;2023-02-05T05:07:23;6.60;99.90
54518;DHT22;40423;53.176;6.002;2023-02-05T05:09:48;6.50;99.90
54518;DHT22;40423;53.176;6.002;2023-02-05T05:12:14;6.50;99.90
54518;DHT22;40423;53.176;6.002;2023-02-05T05:14:40;6.50;99.90
54518;DHT22;40423;53.176;6.002;2023-02-05T05:17:05;6.50;99.90
54518;DHT22;40423;53.176;6.002;2023-02-05T05:19:31;6.40;99.90
54518;DHT22;40423;53.176;6.002;2023-02-05T05:21:57;6.40;99.90
54518;DHT22;40423;53.176;6.002;2023-02-05T05:24:23;6.40;99.90
54518;DHT22;40423;53.176;6.002;2023-02-05T05:26:49;6.40;99.90
54518;DHT22;40423;53.176;6.002;2023-02-05T05:29:14;6.40;99.90
54518;DHT22;40423;53.176;6.002;2023-02-05T05:31:41;6.30;99.90
54518;DHT22;40423;53.176;6.002;2023-02-05T05:34:07;6.30;99.90
54518;DHT22;40423;53.176;6.002;2023-02-05T05:36:32;6.30;99.90
54518;DHT22;40423;53.176;6.002;2023-02-05T05:38:58;6.30;99.90
54518;DHT22;40423;53.176;6.002;2023-02-05T05:41:44;6.30;99.90
54518;DHT22;40423;53.176;6.002;2023-02-05T05:44:28;6.30;99.90
54518;DHT22;40423;53.176;6.002;2023-02-05T05:46:54;6.30;99.90
54518;DHT22;40423;53.176;6.002;2023-02-05T05:49:19;6.30;99.90
54518;DHT22;40423;53.176;6.002;2023-02-05T05:51:45;6.30;99.90
54518;DHT22;40423;53.176;6.002;2023-02-05T05:54:11;6.30;99.90
54518;DHT22;40423;53.176;6.002;2023-02-05T05:56:37;6.30;99.90
54518;DHT22;40423;53.176;6.002;2023-02-05T05:59:03;6.30;99.90
54518;DHT22;40423;53.176;6.002;2023-02-05T06:01:29;6.40;99.90
54518;DHT22;40423;53.176;6.002;2023-02-05T06:03:55;6.40;99.90
54518;DHT22;40423;53.176;6.002;2023-02-05T06:06:21;6.40;99.90
54518;DHT22;40423;53.176;6.002;2023-02-05T06:08:46;6.40;99.90
54518;DHT22;40423;53.176;6.002;2023-02-05T06:11:12;6.50;99.90
54518;DHT22;40423;53.176;6.002;2023-02-05T06:13:38;6.50;99.90
54518;DHT22;40423;53.176;6.002;2023-02-05T06:16:04;6.50;99.90
54518;DHT22;40423;53.176;6.002;2023-02-05T06:18:30;6.40;99.90
54518;DHT22;40423;53.176;6.002;2023-02-05T06:20:56;6.50;99.90
54518;DHT22;40423;53.176;6.002;2023-02-05T06:23:22;6.40;99.90
54518;DHT22;40423;53.176;6.002;2023-02-05T06:25:48;6.40;99.90
54518;DHT22;40423;53.176;6.002;2023-02-05T06:28:13;6.40;99.90
54518;DHT22;40423;53.176;6.002;2023-02-05T06:30:39;6.40;99.90
54518;DHT22;40423;53.176;6.002;2023-02-05T06:33:05;6.40;99.90
54518;DHT22;40423;53.176;6.002;2023-02-05T06:35:30;6.30;99.90
54518;DHT22;40423;53.176;6.002;2023-02-05T06:37:56;6.40;99.90
54518;DHT22;40423;53.176;6.002;2023-02-05T06:40:22;6.40;99.90
54518;DHT22;40423;53.176;6.002;2023-02-05T06:42:51;6.40;99.90
54518;DHT22;40423;53.176;6.002;2023-02-05T06:45:17;6.50;99.90
54518;DHT22;40423;53.176;6.002;2023-02-05T06:47:43;6.50;99.90
54518;DHT22;40423;53.176;6.002;2023-02-05T06:50:09;6.60;99.90
54518;DHT22;40423;53.176;6.002;2023-02-05T06:52:35;6.60;99.90
54518;DHT22;40423;53.176;6.002;2023-02-05T06:55:01;6.70;99.90
54518;DHT22;40423;53.176;6.002;2023-02-05T06:57:26;6.60;99.90
54518;DHT22;40423;53.176;6.002;2023-02-05T06:59:52;6.70;99.90
54518;DHT22;40423;53.176;6.002;2023-02-05T07:02:18;6.90;99.90
54518;DHT22;40423;53.176;6.002;2023-02-05T07:04:44;6.70;99.90
54518;DHT22;40423;53.176;6.002;2023-02-05T07:07:09;6.70;99.90
54518;DHT22;40423;53.176;6.002;2023-02-05T07:09:35;6.70;99.90
54518;DHT22;40423;53.176;6.002;2023-02-05T07:12:01;6.80;99.90
54518;DHT22;40423;53.176;6.002;2023-02-05T07:14:26;6.80;99.90
54518;DHT22;40423;53.176;6.002;2023-02-05T07:16:52;6.80;99.90
54518;DHT22;40423;53.176;6.002;2023-02-05T07:19:18;6.80;99.90
54518;DHT22;40423;53.176;6.002;2023-02-05T07:21:44;7.00;99.90
54518;DHT22;40423;53.176;6.002;2023-02-05T07:24:09;6.80;99.90
54518;DHT22;40423;53.176;6.002;2023-02-05T07:26:35;6.80;99.90
54518;DHT22;40423;53.176;6.002;2023-02-05T07:29:01;6.80;99.90
54518;DHT22;40423;53.176;6.002;2023-02-05T07:31:27;6.80;99.90
54518;DHT22;40423;53.176;6.002;2023-02-05T07:33:52;6.80;99.90
54518;DHT22;40423;53.176;6.002;2023-02-05T07:36:18;6.80;99.90
54518;DHT22;40423;53.176;6.002;2023-02-05T07:38:46;6.80;99.90
54518;DHT22;40423;53.176;6.002;2023-02-05T07:41:13;6.70;99.90
54518;DHT22;40423;53.176;6.002;2023-02-05T07:43:39;6.80;99.90
54518;DHT22;40423;53.176;6.002;2023-02-05T07:46:08;6.80;99.90
54518;DHT22;40423;53.176;6.002;2023-02-05T07:48:34;6.80;99.90
54518;DHT22;40423;53.176;6.002;2023-02-05T07:51:00;6.80;99.90
54518;DHT22;40423;53.176;6.002;2023-02-05T07:53:26;6.80;99.90
54518;DHT22;40423;53.176;6.002;2023-02-05T07:55:52;6.80;99.90
54518;DHT22;40423;53.176;6.002;2023-02-05T07:58:18;6.80;99.90
54518;DHT22;40423;53.176;6.002;2023-02-05T08:00:45;6.90;99.90
54518;DHT22;40423;53.176;6.002;2023-02-05T08:03:11;6.90;99.90
54518;DHT22;40423;53.176;6.002;2023-02-05T08:05:37;6.90;99.90
54518;DHT22;40423;53.176;6.002;2023-02-05T08:08:04;6.90;99.90
54518;DHT22;40423;53.176;6.002;2023-02-05T08:10:30;7.00;99.90
54518;DHT22;40423;53.176;6.002;2023-02-05T08:12:55;7.00;99.90
54518;DHT22;40423;53.176;6.002;2023-02-05T08:15:21;7.10;99.90
54518;DHT22;40423;53.176;6.002;2023-02-05T08:17:47;7.10;99.90
54518;DHT22;40423;53.176;6.002;2023-02-05T08:20:12;7.10;99.90
54518;DHT22;40423;53.176;6.002;2023-02-05T08:22:40;7.10;99.90
54518;DHT22;40423;53.176;6.002;2023-02-05T08:25:09;7.10;99.90
54518;DHT22;40423;53.176;6.002;2023-02-05T08:27:37;7.20;99.90
54518;DHT22;40423;53.176;6.002;2023-02-05T08:30:05;7.40;99.90
54518;DHT22;40423;53.176;6.002;2023-02-05T08:32:33;7.20;99.90
54518;DHT22;40423;53.176;6.002;2023-02-05T08:34:58;7.20;99.90
54518;DHT22;40423;53.176;6.002;2023-02-05T08:37:25;7.30;99.90
54518;DHT22;40423;53.176;6.002;2023-02-05T08:39:51;7.30;99.90
54518;DHT22;40423;53.176;6.002;2023-02-05T08:42:17;7.30;99.90
54518;DHT22;40423;53.176;6.002;2023-02-05T08:44:43;7.30;99.90
54518;DHT22;40423;53.176;6.002;2023-02-05T08:47:09;7.30;99.90
54518;DHT22;40423;53.176;6.002;2023-02-05T08:49:35;7.40;99.90
54518;DHT22;40423;53.176;6.002;2023-02-05T08:52:01;7.40;99.90
54518;DHT22;40423;53.176;6.002;2023-02-05T08:54:27;7.40;99.90
54518;DHT22;40423;53.176;6.002;2023-02-05T08:56:53;7.40;99.90
54518;DHT22;40423;53.176;6.002;2023-02-05T08:59:19;7.50;99.90
54518;DHT22;40423;53.176;6.002;2023-02-05T09:01:46;7.50;99.90
54518;DHT22;40423;53.176;6.002;2023-02-05T09:04:16;7.50;99.90
54518;DHT22;40423;53.176;6.002;2023-02-05T09:06:43;7.50;99.90
54518;DHT22;40423;53.176;6.002;2023-02-05T09:09:09;7.60;99.90
54518;DHT22;40423;53.176;6.002;2023-02-05T09:11:35;7.60;99.90
54518;DHT22;40423;53.176;6.002;2023-02-05T09:14:01;7.70;99.90
54518;DHT22;40423;53.176;6.002;2023-02-05T09:16:27;7.70;99.90
54518;DHT22;40423;53.176;6.002;2023-02-05T09:18:54;7.80;99.90
54518;DHT22;40423;53.176;6.002;2023-02-05T09:21:20;7.80;99.90
54518;DHT22;40423;53.176;6.002;2023-02-05T09:23:46;7.80;99.90
54518;DHT22;40423;53.176;6.002;2023-02-05T09:26:11;7.80;99.90
54518;DHT22;40423;53.176;6.002;2023-02-05T09:28:37;7.70;99.90
54518;DHT22;40423;53.176;6.002;2023-02-05T09:31:05;7.80;99.90
54518;DHT22;40423;53.176;6.002;2023-02-05T09:33:31;7.80;99.90
54518;DHT22;40423;53.176;6.002;2023-02-05T09:35:57;7.80;99.90
54518;DHT22;40423;53.176;6.002;2023-02-05T09:38:23;7.90;99.90
54518;DHT22;40423;53.176;6.002;2023-02-05T09:40:56;8.00;99.90
54518;DHT22;40423;53.176;6.002;2023-02-05T09:46:19;8.10;99.90
54518;DHT22;40423;53.176;6.002;2023-02-05T09:48:48;8.20;99.90
54518;DHT22;40423;53.176;6.002;2023-02-05T09:51:17;8.30;99.90
54518;DHT22;40423;53.176;6.002;2023-02-05T09:53:54;8.30;99.90
54518;DHT22;40423;53.176;6.002;2023-02-05T09:56:20;8.30;99.90
54518;DHT22;40423;53.176;6.002;2023-02-05T09:58:51;8.40;99.90
54518;DHT22;40423;53.176;6.002;2023-02-05T10:01:22;8.50;99.90
54518;DHT22;40423;53.176;6.002;2023-02-05T10:03:58;8.40;99.90
54518;DHT22;40423;53.176;6.002;2023-02-05T10:12:05;8.40;99.90
54518;DHT22;40423;53.176;6.002;2023-02-05T10:22:29;8.60;99.90
54518;DHT22;40423;53.176;6.002;2023-02-05T10:28:08;8.60;99.90
54518;DHT22;40423;53.176;6.002;2023-02-05T10:33:49;8.50;99.90
54518;DHT22;40423;53.176;6.002;2023-02-05T10:36:20;8.50;99.90
54518;DHT22;40423;53.176;6.002;2023-02-05T10:38:51;8.60;99.90
54518;DHT22;40423;53.176;6.002;2023-02-05T10:41:34;8.60;99.90
54518;DHT22;40423;53.176;6.002;2023-02-05T10:44:10;8.70;99.90
54518;DHT22;40423;53.176;6.002;2023-02-05T10:46:40;8.70;99.90
54518;DHT22;40423;53.176;6.002;2023-02-05T10:49:37;8.60;99.90
54518;DHT22;40423;53.176;6.002;2023-02-05T10:52:06;8.50;99.90
54518;DHT22;40423;53.176;6.002;2023-02-05T10:54:34;8.50;99.90
54518;DHT22;40423;53.176;6.002;2023-02-05T10:57:00;8.50;99.90
54518;DHT22;40423;53.176;6.002;2023-02-05T10:59:29;8.40;99.90
54518;DHT22;40423;53.176;6.002;2023-02-05T11:01:59;8.40;99.90
54518;DHT22;40423;53.176;6.002;2023-02-05T11:04:32;8.40;99.90
54518;DHT22;40423;53.176;6.002;2023-02-05T11:07:00;8.50;99.90
54518;DHT22;40423;53.176;6.002;2023-02-05T11:09:31;8.60;99.90
54518;DHT22;40423;53.176;6.002;2023-02-05T11:12:21;8.80;99.90
54518;DHT22;40423;53.176;6.002;2023-02-05T11:14:56;8.90;99.90
54518;DHT22;40423;53.176;6.002;2023-02-05T11:17:35;9.00;99.90
54518;DHT22;40423;53.176;6.002;2023-02-05T11:22:37;9.10;99.90
54518;DHT22;40423;53.176;6.002;2023-02-05T11:25:22;9.00;99.90
54518;DHT22;40423;53.176;6.002;2023-02-05T11:30:29;9.20;99.90
54518;DHT22;40423;53.176;6.002;2023-02-05T11:32:57;9.20;99.90
54518;DHT22;40423;53.176;6.002;2023-02-05T11:35:28;9.20;99.90
54518;DHT22;40423;53.176;6.002;2023-02-05T11:40:31;9.10;99.90
54518;DHT22;40423;53.176;6.002;2023-02-05T11:45:23;9.30;99.90
54518;DHT22;40423;53.176;6.002;2023-02-05T11:47:50;9.20;99.90
54518;DHT22;40423;53.176;6.002;2023-02-05T11:50:24;9.10;99.90
54518;DHT22;40423;53.176;6.002;2023-02-05T11:52:51;9.00;99.90
54518;DHT22;40423;53.176;6.002;2023-02-05T11:55:43;9.40;99.90
54518;DHT22;40423;53.176;6.002;2023-02-05T11:58:21;9.60;99.90
54518;DHT22;40423;53.176;6.002;2023-02-05T12:01:03;9.70;99.90
54518;DHT22;40423;53.176;6.002;2023-02-05T12:03:31;9.80;99.90
54518;DHT22;40423;53.176;6.002;2023-02-05T12:06:19;9.70;99.90
54518;DHT22;40423;53.176;6.002;2023-02-05T12:08:50;9.80;99.90
54518;DHT22;40423;53.176;6.002;2023-02-05T12:11:20;9.80;99.90
54518;DHT22;40423;53.176;6.002;2023-02-05T12:22:05;9.50;99.90
54518;DHT22;40423;53.176;6.002;2023-02-05T12:25:24;9.50;99.90
54518;DHT22;40423;53.176;6.002;2023-02-05T12:47:03;9.70;99.90
54518;DHT22;40423;53.176;6.002;2023-02-05T12:57:56;9.80;99.90
54518;DHT22;40423;53.176;6.002;2023-02-05T13:00:48;9.70;99.90
54518;DHT22;40423;53.176;6.002;2023-02-05T13:06:03;9.70;99.90
54518;DHT22;40423;53.176;6.002;2023-02-05T13:08:50;9.60;99.90
54518;DHT22;40423;53.176;6.002;2023-02-05T13:14:20;9.40;99.90
54518;DHT22;40423;53.176;6.002;2023-02-05T13:17:04;9.40;99.90
54518;DHT22;40423;53.176;6.002;2023-02-05T13:19:41;9.50;99.90
54518;DHT22;40423;53.176;6.002;2023-02-05T13:22:23;9.40;99.90
54518;DHT22;40423;53.176;6.002;2023-02-05T13:25:48;9.40;99.90
54518;DHT22;40423;53.176;6.002;2023-02-05T13:28:43;9.40;99.90
54518;DHT22;40423;53.176;6.002;2023-02-05T13:31:31;9.40;99.90
54518;DHT22;40423;53.176;6.002;2023-02-05T13:34:07;9.40;99.90
54518;DHT22;40423;53.176;6.002;2023-02-05T13:42:58;9.30;99.90
54518;DHT22;40423;53.176;6.002;2023-02-05T13:45:57;9.20;99.90
54518;DHT22;40423;53.176;6.002;2023-02-05T13:59:40;9.20;99.90
54518;DHT22;40423;53.176;6.002;2023-02-05T14:04:55;9.20;99.90
54518;DHT22;40423;53.176;6.002;2023-02-05T14:07:26;9.30;99.90
54518;DHT22;40423;53.176;6.002;2023-02-05T14:09:57;9.20;99.90
54518;DHT22;40423;53.176;6.002;2023-02-05T14:12:36;9.20;99.90
54518;DHT22;40423;53.176;6.002;2023-02-05T14:22:57;9.20;99.90
54518;DHT22;40423;53.176;6.002;2023-02-05T14:33:33;9.10;99.90
54518;DHT22;40423;53.176;6.002;2023-02-05T14:38:42;9.00;99.90
54518;DHT22;40423;53.176;6.002;2023-02-05T14:41:25;9.00;99.90
54518;DHT22;40423;53.176;6.002;2023-02-05T14:48:54;8.90;99.90
54518;DHT22;40423;53.176;6.002;2023-02-05T14:51:31;8.90;99.90
54518;DHT22;40423;53.176;6.002;2023-02-05T14:54:01;8.80;99.90
54518;DHT22;40423;53.176;6.002;2023-02-05T14:56:49;8.80;99.90
54518;DHT22;40423;53.176;6.002;2023-02-05T14:59:23;8.80;99.90
54518;DHT22;40423;53.176;6.002;2023-02-05T15:01:55;8.70;99.90
54518;DHT22;40423;53.176;6.002;2023-02-05T15:04:34;8.70;99.90
54518;DHT22;40423;53.176;6.002;2023-02-05T15:07:16;8.60;99.90
54518;DHT22;40423;53.176;6.002;2023-02-05T15:10:00;8.60;99.90
54518;DHT22;40423;53.176;6.002;2023-02-05T15:18:02;8.50;99.90
54518;DHT22;40423;53.176;6.002;2023-02-05T15:20:31;8.40;99.90
54518;DHT22;40423;53.176;6.002;2023-02-05T15:25:40;8.30;99.90
54518;DHT22;40423;53.176;6.002;2023-02-05T15:28:20;8.30;99.90
54518;DHT22;40423;53.176;6.002;2023-02-05T15:31:33;8.30;99.90
54518;DHT22;40423;53.176;6.002;2023-02-05T15:34:35;8.30;99.90
54518;DHT22;40423;53.176;6.002;2023-02-05T15:37:35;8.20;99.90
54518;DHT22;40423;53.176;6.002;2023-02-05T15:40:19;8.10;99.90
54518;DHT22;40423;53.176;6.002;2023-02-05T15:42:49;8.00;99.90
54518;DHT22;40423;53.176;6.002;2023-02-05T15:45:30;8.00;99.90
54518;DHT22;40423;53.176;6.002;2023-02-05T15:50:36;7.90;99.90
54518;DHT22;40423;53.176;6.002;2023-02-05T15:53:10;7.80;99.90
54518;DHT22;40423;53.176;6.002;2023-02-05T15:55:47;7.80;99.90
54518;DHT22;40423;53.176;6.002;2023-02-05T15:58:18;7.80;99.90
54518;DHT22;40423;53.176;6.002;2023-02-05T16:00:48;7.80;99.90
54518;DHT22;40423;53.176;6.002;2023-02-05T16:03:26;7.80;99.90
54518;DHT22;40423;53.176;6.002;2023-02-05T16:05:52;7.70;99.90
54518;DHT22;40423;53.176;6.002;2023-02-05T16:08:20;7.70;99.90
54518;DHT22;40423;53.176;6.002;2023-02-05T16:10:55;7.70;99.90
54518;DHT22;40423;53.176;6.002;2023-02-05T16:13:24;7.60;99.90
54518;DHT22;40423;53.176;6.002;2023-02-05T16:16:04;7.60;99.90
54518;DHT22;40423;53.176;6.002;2023-02-05T16:18:48;7.60;99.90
54518;DHT22;40423;53.176;6.002;2023-02-05T16:21:33;7.50;99.90
54518;DHT22;40423;53.176;6.002;2023-02-05T16:24:06;7.50;99.90
54518;DHT22;40423;53.176;6.002;2023-02-05T16:26:50;7.50;99.90
54518;DHT22;40423;53.176;6.002;2023-02-05T16:29:35;7.40;99.90
54518;DHT22;40423;53.176;6.002;2023-02-05T16:32:02;7.40;99.90
54518;DHT22;40423;53.176;6.002;2023-02-05T16:34:30;7.40;99.90
54518;DHT22;40423;53.176;6.002;2023-02-05T16:37:01;7.30;99.90
54518;DHT22;40423;53.176;6.002;2023-02-05T16:39:33;7.30;99.90
54518;DHT22;40423;53.176;6.002;2023-02-05T16:42:05;7.30;99.90
54518;DHT22;40423;53.176;6.002;2023-02-05T16:44:37;7.30;99.90
54518;DHT22;40423;53.176;6.002;2023-02-05T16:49:40;7.20;99.90
54518;DHT22;40423;53.176;6.002;2023-02-05T16:52:29;7.20;99.90
54518;DHT22;40423;53.176;6.002;2023-02-05T16:54:56;7.10;99.90
54518;DHT22;40423;53.176;6.002;2023-02-05T16:57:27;7.10;99.90
54518;DHT22;40423;53.176;6.002;2023-02-05T17:00:00;7.10;99.90
54518;DHT22;40423;53.176;6.002;2023-02-05T17:02:37;7.00;99.90
54518;DHT22;40423;53.176;6.002;2023-02-05T17:05:19;7.00;99.90
54518;DHT22;40423;53.176;6.002;2023-02-05T17:08:06;7.00;99.90
54518;DHT22;40423;53.176;6.002;2023-02-05T17:10:56;7.00;99.90
54518;DHT22;40423;53.176;6.002;2023-02-05T17:16:17;7.00;99.90
54518;DHT22;40423;53.176;6.002;2023-02-05T17:18:52;6.90;99.90
54518;DHT22;40423;53.176;6.002;2023-02-05T17:21:23;6.90;99.90
54518;DHT22;40423;53.176;6.002;2023-02-05T17:23:51;6.90;99.90
54518;DHT22;40423;53.176;6.002;2023-02-05T17:26:17;6.90;99.90
54518;DHT22;40423;53.176;6.002;2023-02-05T17:28:52;6.80;99.90
54518;DHT22;40423;53.176;6.002;2023-02-05T17:31:18;6.80;99.90
54518;DHT22;40423;53.176;6.002;2023-02-05T17:33:50;6.90;99.90
54518;DHT22;40423;53.176;6.002;2023-02-05T17:36:16;6.80;99.90
54518;DHT22;40423;53.176;6.002;2023-02-05T17:38:43;6.90;99.90
54518;DHT22;40423;53.176;6.002;2023-02-05T17:41:14;6.80;99.90
54518;DHT22;40423;53.176;6.002;2023-02-05T17:44:03;6.90;99.90
54518;DHT22;40423;53.176;6.002;2023-02-05T17:46:28;6.80;99.90
54518;DHT22;40423;53.176;6.002;2023-02-05T17:48:54;6.80;99.90
54518;DHT22;40423;53.176;6.002;2023-02-05T17:51:21;6.80;99.90
54518;DHT22;40423;53.176;6.002;2023-02-05T17:53:48;6.80;99.90
54518;DHT22;40423;53.176;6.002;2023-02-05T17:56:14;6.80;99.90
54518;DHT22;40423;53.176;6.002;2023-02-05T17:58:40;6.70;99.90
54518;DHT22;40423;53.176;6.002;2023-02-05T18:01:06;6.70;99.90
54518;DHT22;40423;53.176;6.002;2023-02-05T18:03:33;6.70;99.90
54518;DHT22;40423;53.176;6.002;2023-02-05T18:05:59;6.60;99.90
54518;DHT22;40423;53.176;6.002;2023-02-05T18:08:27;6.60;99.90
54518;DHT22;40423;53.176;6.002;2023-02-05T18:10:54;6.60;99.90
54518;DHT22;40423;53.176;6.002;2023-02-05T18:13:22;6.60;99.90
54518;DHT22;40423;53.176;6.002;2023-02-05T18:15:48;6.60;99.90
54518;DHT22;40423;53.176;6.002;2023-02-05T18:18:17;6.50;99.90
54518;DHT22;40423;53.176;6.002;2023-02-05T18:20:42;6.50;99.90
54518;DHT22;40423;53.176;6.002;2023-02-05T18:23:08;6.50;99.90
54518;DHT22;40423;53.176;6.002;2023-02-05T18:25:34;6.50;99.90
54518;DHT22;40423;53.176;6.002;2023-02-05T18:27:59;6.40;99.90
54518;DHT22;40423;53.176;6.002;2023-02-05T18:30:25;6.40;99.90
54518;DHT22;40423;53.176;6.002;2023-02-05T18:32:51;6.40;99.90
54518;DHT22;40423;53.176;6.002;2023-02-05T18:35:17;6.40;99.90
54518;DHT22;40423;53.176;6.002;2023-02-05T18:37:43;6.40;99.90
54518;DHT22;40423;53.176;6.002;2023-02-05T18:40:10;6.40;99.90
54518;DHT22;40423;53.176;6.002;2023-02-05T18:42:41;6.40;99.90
54518;DHT22;40423;53.176;6.002;2023-02-05T18:45:11;6.40;99.90
54518;DHT22;40423;53.176;6.002;2023-02-05T18:47:37;6.40;99.90
54518;DHT22;40423;53.176;6.002;2023-02-05T18:50:03;6.40;99.90
54518;DHT22;40423;53.176;6.002;2023-02-05T18:52:29;6.30;99.90